Warning: Javascript must be enabled to use all the features on this page!


Page Loading - Please Wait...

Click to hideNews Bulletins
  • Have your voice heard. Have a few minutes? We're surveying users about their experience with Water Data for the Nation (WDFN). Please take a few minutes to complete our online survey.
  • See the Water Data for the Nation Blog for the latest news and updates.

Peak Streamflow for the Nation

USGS 02202500 OGEECHEE RIVER NEAR EDEN, GA

Effingham County, Georgia
Hydrologic Unit Code 03060202
Latitude  32°11'24.4", Longitude  81°24'57.1" NAD83
Drainage area 2,650.00  square miles
Contributing drainage area 2,650  square miles
Gage datum 17.06 feet above NAVD88
Output formats
Table
Graph
Tab-separated file
peakfq (watstore) format
Reselect output format
Water
Year
Date Gage
Height
(feet)
Stream-
flow
(cfs)
1898 1898 15.903,Bm 36,0007,Bm
1925 1925-01 19.503,Bd 70,0007,Bd
1928 1928-08 12.803,Bd 17,8007,Bd
1929 1929-03 14.303,Bd 25,0007,Bd
1930 1929-10 20.003,Bd 78,0007,Bd
1936 1936-03-14 15.203 30,000
1937 1937-05-11 11.553 11,400
1938 1938-04-19 11.523 10,800
1939 1939-03-09 14.20 23,700
1940 1940-08-23 13.80 20,200
1941 1941-07-30 9.30 5,700
1942 1942-04-01 12.20 13,100
1943 1943-04-01 11.50 10,700
1944 1944-03-31 14.70 26,300
1945 1945-03-04 8.14 3,980
1946 1946-01-26 10.30 7,620
1947 1947-03-19 12.10 14,200
1948 1948-04-03 13.30 20,900
1949 1948-12-10 12.80 17,800
1950 1950-09-10 8.10 3,800
1951 1951-04-03 8.90 5,000
1952 1952-03-16 11.60 12,000
1953 1953-05-14 12.40 15,600
1954 1954-01-01 9.00 5,180
1955 1955-04-24 9.50 6,100
1956 1956-03-30 9.80 6,700
1957 1957-04-13 8.20 3,920
1958 1958-03-14 10.60 9,200
1959 1959-03-09 10.40 7,850
1960 1960-04-10 14.00 24,000
1961 1961-04-22 13.40 21,200
1962 1962-03-19 12.12 16,000
1963 1963-02-01 11.53 11,600
1964 1964-04-18 11.86 14,600
1965 1965-02-23 12.41 17,800
1966 1966-03-11 14.05 25,200
1967 1967-01-17 9.71 6,720
1968 1968-01-27 8.22 4,010
1969 1969-09-05 10.34 8,520
1970 1970-04-07 11.71 13,600
1971 1971-03-13 13.61 23,000
1972 1972-01-22 12.08 15,400
1973 1973-02-10 12.30 16,500
1974 1974-02-25 10.87 10,300
1975 1975-02-28 12.42 17,100
1976 1976-03-29 9.91 7,230
1977 1977-03-30 11.49 12,800
1978 1978-02-02 12.45 17,200
1979 1979-03-06 12.59 18,000
1980 1980-03-19 14.77 28,800
1981 1981-02-27 9.11 5,420
1982 1982-01-14 10.42 8,760
1983 1983-04-20 11.33 12,100
1984 1984-03-09 11.02 10,900
1985 1985-02-19 10.02 7,160
1986 1985-12-20 11.01 10,800
1987 1987-01-28 12.87 19,300
1988 1988-04-29 7.84 3,330
1989 1989-04-25 9.40 5,670
1990 1990-01-10 10.94 9,430
1991 1990-10-20 14.41 26,800
1992 1992-03-03 10.08 7,350
1993 1993-01-15 14.64 28,000
1994 1994-03-14 10.17 7,640
1995 1995-02-26 13.75 23,400
1996 1996-03-20 10.63 9,290
1997 1997-02-27 11.32 12,000
1998 1998-03-15 15.15 30,900
1999 1999-02-15 8.89 4,700
2000 2000-03-28 8.31 3,990
2001 2001-03-28 10.06 7,290
2002 2002-03-19 5.776 1,200
2003 2003-03-27 15.41 21,800
2004 2004-03-06 11.39 6,170
2005 2005-04-04 14.35 16,600
2006 2005-10-17 10.28 3,830
2007 2007-03-16 11.23 5,310
2008 2008-03-04 10.99 5,350
2009 2009-04-10 14.43 16,900
2010 2010-02-06 13.58 13,100
2011 2011-02-16 9.59 3,520
2012 2012-06-22 5.76 1,310
2013 2013-07-17 14.68 17,000
2014 2014-04-25 11.91 6,720
2015 2015-03-06 12.73 8,880
2016 2016-01-04 13.78 12,900
2017 2017-01-25 12.36 7,730
2019 2019-01-17 11.70 6,300
2020 2020-02-25 16.09 24,300
2021 2021-02-25 15.15 19,300
?
  Peak Gage-Height Qualification Codes.
?
  Peak Streamflow Qualification Codes.